sensor_id;sensor_type;location;lat;lon;timestamp;P1;durP1;ratioP1;P2;durP2;ratioP2
69534;SDS011;56754;51.568;5.048;2023-08-17T00:01:00;3.67;;;1.30;;
69534;SDS011;56754;51.568;5.048;2023-08-17T00:03:26;3.53;;;1.00;;
69534;SDS011;56754;51.568;5.048;2023-08-17T00:05:51;2.43;;;0.93;;
69534;SDS011;56754;51.568;5.048;2023-08-17T00:08:16;3.37;;;1.10;;
69534;SDS011;56754;51.568;5.048;2023-08-17T00:10:42;3.07;;;1.10;;
69534;SDS011;56754;51.568;5.048;2023-08-17T00:13:07;3.53;;;1.20;;
69534;SDS011;56754;51.568;5.048;2023-08-17T00:15:32;3.17;;;1.10;;
69534;SDS011;56754;51.568;5.048;2023-08-17T00:17:58;2.70;;;1.10;;
69534;SDS011;56754;51.568;5.048;2023-08-17T00:20:23;3.03;;;1.00;;
69534;SDS011;56754;51.568;5.048;2023-08-17T00:22:48;3.93;;;1.30;;
69534;SDS011;56754;51.568;5.048;2023-08-17T00:25:14;4.43;;;1.08;;
69534;SDS011;56754;51.568;5.048;2023-08-17T00:27:39;2.83;;;1.10;;
69534;SDS011;56754;51.568;5.048;2023-08-17T00:30:05;5.27;;;1.13;;
69534;SDS011;56754;51.568;5.048;2023-08-17T00:32:30;2.10;;;0.80;;
69534;SDS011;56754;51.568;5.048;2023-08-17T00:34:56;5.50;;;1.37;;
69534;SDS011;56754;51.568;5.048;2023-08-17T00:37:21;5.23;;;1.20;;
69534;SDS011;56754;51.568;5.048;2023-08-17T00:39:46;3.33;;;1.07;;
69534;SDS011;56754;51.568;5.048;2023-08-17T00:42:11;3.33;;;1.00;;
69534;SDS011;56754;51.568;5.048;2023-08-17T00:44:37;3.90;;;1.10;;
69534;SDS011;56754;51.568;5.048;2023-08-17T00:47:02;3.43;;;1.00;;
69534;SDS011;56754;51.568;5.048;2023-08-17T00:49:28;4.20;;;1.00;;
69534;SDS011;56754;51.568;5.048;2023-08-17T00:51:54;2.53;;;0.93;;
69534;SDS011;56754;51.568;5.048;2023-08-17T00:54:24;3.30;;;1.03;;
69534;SDS011;56754;51.568;5.048;2023-08-17T00:56:52;2.83;;;1.13;;
69534;SDS011;56754;51.568;5.048;2023-08-17T00:59:18;2.63;;;1.08;;
69534;SDS011;56754;51.568;5.048;2023-08-17T01:01:43;3.43;;;1.00;;
69534;SDS011;56754;51.568;5.048;2023-08-17T01:04:09;2.85;;;0.90;;
69534;SDS011;56754;51.568;5.048;2023-08-17T01:06:34;3.53;;;1.00;;
69534;SDS011;56754;51.568;5.048;2023-08-17T01:08:59;2.73;;;0.97;;
69534;SDS011;56754;51.568;5.048;2023-08-17T01:13:57;3.03;;;1.00;;
69534;SDS011;56754;51.568;5.048;2023-08-17T01:16:39;4.03;;;1.17;;
69534;SDS011;56754;51.568;5.048;2023-08-17T01:19:08;3.00;;;1.02;;
69534;SDS011;56754;51.568;5.048;2023-08-17T01:21:35;3.03;;;1.00;;
69534;SDS011;56754;51.568;5.048;2023-08-17T01:24:06;4.82;;;1.00;;
69534;SDS011;56754;51.568;5.048;2023-08-17T01:26:32;2.80;;;0.85;;
69534;SDS011;56754;51.568;5.048;2023-08-17T01:28:57;2.80;;;1.00;;
69534;SDS011;56754;51.568;5.048;2023-08-17T01:31:35;3.87;;;1.00;;
69534;SDS011;56754;51.568;5.048;2023-08-17T01:34:08;3.33;;;0.93;;
69534;SDS011;56754;51.568;5.048;2023-08-17T01:36:50;4.30;;;1.10;;
69534;SDS011;56754;51.568;5.048;2023-08-17T01:39:18;3.10;;;0.97;;
69534;SDS011;56754;51.568;5.048;2023-08-17T01:41:48;2.38;;;0.95;;
69534;SDS011;56754;51.568;5.048;2023-08-17T01:44:16;3.60;;;1.00;;
69534;SDS011;56754;51.568;5.048;2023-08-17T01:46:41;5.03;;;1.10;;
69534;SDS011;56754;51.568;5.048;2023-08-17T01:49:07;5.32;;;1.02;;
69534;SDS011;56754;51.568;5.048;2023-08-17T01:51:32;2.43;;;0.97;;
69534;SDS011;56754;51.568;5.048;2023-08-17T01:53:57;3.07;;;0.80;;
69534;SDS011;56754;51.568;5.048;2023-08-17T01:56:23;2.80;;;1.00;;
69534;SDS011;56754;51.568;5.048;2023-08-17T01:58:48;3.30;;;1.00;;
69534;SDS011;56754;51.568;5.048;2023-08-17T02:01:13;4.97;;;1.10;;
69534;SDS011;56754;51.568;5.048;2023-08-17T02:03:39;3.70;;;1.20;;
69534;SDS011;56754;51.568;5.048;2023-08-17T02:06:04;4.37;;;1.00;;
69534;SDS011;56754;51.568;5.048;2023-08-17T02:08:29;2.90;;;1.03;;
69534;SDS011;56754;51.568;5.048;2023-08-17T02:10:55;4.33;;;1.10;;
69534;SDS011;56754;51.568;5.048;2023-08-17T02:13:20;2.70;;;0.97;;
69534;SDS011;56754;51.568;5.048;2023-08-17T02:15:48;2.83;;;1.13;;
69534;SDS011;56754;51.568;5.048;2023-08-17T02:18:14;3.05;;;0.95;;
69534;SDS011;56754;51.568;5.048;2023-08-17T02:20:39;2.40;;;0.93;;
69534;SDS011;56754;51.568;5.048;2023-08-17T02:23:04;7.00;;;1.20;;
69534;SDS011;56754;51.568;5.048;2023-08-17T02:25:29;4.47;;;1.30;;
69534;SDS011;56754;51.568;5.048;2023-08-17T02:27:55;3.30;;;1.00;;
69534;SDS011;56754;51.568;5.048;2023-08-17T02:30:20;3.43;;;1.00;;
69534;SDS011;56754;51.568;5.048;2023-08-17T02:32:45;2.83;;;0.93;;
69534;SDS011;56754;51.568;5.048;2023-08-17T02:35:11;4.47;;;1.10;;
69534;SDS011;56754;51.568;5.048;2023-08-17T02:37:36;3.90;;;1.10;;
69534;SDS011;56754;51.568;5.048;2023-08-17T02:40:02;3.80;;;1.30;;
69534;SDS011;56754;51.568;5.048;2023-08-17T02:42:27;4.10;;;1.10;;
69534;SDS011;56754;51.568;5.048;2023-08-17T02:44:52;4.03;;;1.33;;
69534;SDS011;56754;51.568;5.048;2023-08-17T02:47:18;3.13;;;1.13;;
69534;SDS011;56754;51.568;5.048;2023-08-17T02:49:43;4.30;;;1.13;;
69534;SDS011;56754;51.568;5.048;2023-08-17T02:52:08;4.27;;;1.00;;
69534;SDS011;56754;51.568;5.048;2023-08-17T02:54:33;3.30;;;0.93;;
69534;SDS011;56754;51.568;5.048;2023-08-17T02:56:59;2.60;;;0.90;;
69534;SDS011;56754;51.568;5.048;2023-08-17T02:59:25;3.92;;;1.02;;
69534;SDS011;56754;51.568;5.048;2023-08-17T03:01:50;8.73;;;1.30;;
69534;SDS011;56754;51.568;5.048;2023-08-17T03:04:16;3.42;;;1.17;;
69534;SDS011;56754;51.568;5.048;2023-08-17T03:06:41;4.70;;;1.20;;
69534;SDS011;56754;51.568;5.048;2023-08-17T03:09:06;3.70;;;1.00;;
69534;SDS011;56754;51.568;5.048;2023-08-17T03:11:32;2.97;;;1.10;;
69534;SDS011;56754;51.568;5.048;2023-08-17T03:13:57;4.10;;;1.07;;
69534;SDS011;56754;51.568;5.048;2023-08-17T03:16:22;3.05;;;1.08;;
69534;SDS011;56754;51.568;5.048;2023-08-17T03:18:47;3.57;;;1.10;;
69534;SDS011;56754;51.568;5.048;2023-08-17T03:21:13;4.27;;;1.20;;
69534;SDS011;56754;51.568;5.048;2023-08-17T03:23:38;3.47;;;1.07;;
69534;SDS011;56754;51.568;5.048;2023-08-17T03:26:03;3.73;;;1.10;;
69534;SDS011;56754;51.568;5.048;2023-08-17T03:28:29;3.07;;;0.93;;
69534;SDS011;56754;51.568;5.048;2023-08-17T03:30:55;3.17;;;1.00;;
69534;SDS011;56754;51.568;5.048;2023-08-17T03:33:21;4.20;;;1.15;;
69534;SDS011;56754;51.568;5.048;2023-08-17T03:35:46;3.65;;;1.10;;
69534;SDS011;56754;51.568;5.048;2023-08-17T03:38:11;3.47;;;0.90;;
69534;SDS011;56754;51.568;5.048;2023-08-17T03:40:37;3.43;;;1.20;;
69534;SDS011;56754;51.568;5.048;2023-08-17T03:43:02;3.97;;;0.90;;
69534;SDS011;56754;51.568;5.048;2023-08-17T03:45:27;4.33;;;1.07;;
69534;SDS011;56754;51.568;5.048;2023-08-17T03:47:54;3.42;;;1.00;;
69534;SDS011;56754;51.568;5.048;2023-08-17T03:50:19;4.10;;;1.30;;
69534;SDS011;56754;51.568;5.048;2023-08-17T03:52:44;3.30;;;1.00;;
69534;SDS011;56754;51.568;5.048;2023-08-17T03:55:10;3.37;;;1.20;;
69534;SDS011;56754;51.568;5.048;2023-08-17T03:57:35;3.38;;;1.05;;
69534;SDS011;56754;51.568;5.048;2023-08-17T04:00:00;3.73;;;0.93;;
69534;SDS011;56754;51.568;5.048;2023-08-17T04:02:25;2.93;;;1.07;;
69534;SDS011;56754;51.568;5.048;2023-08-17T04:04:51;3.37;;;0.90;;
69534;SDS011;56754;51.568;5.048;2023-08-17T04:07:22;3.63;;;1.20;;
69534;SDS011;56754;51.568;5.048;2023-08-17T04:09:47;3.05;;;1.10;;
69534;SDS011;56754;51.568;5.048;2023-08-17T04:12:13;4.57;;;1.30;;
69534;SDS011;56754;51.568;5.048;2023-08-17T04:14:38;3.47;;;1.30;;
69534;SDS011;56754;51.568;5.048;2023-08-17T04:17:03;3.10;;;1.07;;
69534;SDS011;56754;51.568;5.048;2023-08-17T04:19:29;2.97;;;0.93;;
69534;SDS011;56754;51.568;5.048;2023-08-17T04:21:54;3.70;;;1.20;;
69534;SDS011;56754;51.568;5.048;2023-08-17T04:24:19;2.93;;;0.90;;
69534;SDS011;56754;51.568;5.048;2023-08-17T04:26:45;3.87;;;1.30;;
69534;SDS011;56754;51.568;5.048;2023-08-17T04:29:10;2.73;;;0.90;;
69534;SDS011;56754;51.568;5.048;2023-08-17T04:31:35;3.63;;;1.17;;
69534;SDS011;56754;51.568;5.048;2023-08-17T04:34:00;4.70;;;1.20;;
69534;SDS011;56754;51.568;5.048;2023-08-17T04:36:26;4.00;;;1.10;;
69534;SDS011;56754;51.568;5.048;2023-08-17T04:38:51;4.65;;;1.02;;
69534;SDS011;56754;51.568;5.048;2023-08-17T04:41:16;3.77;;;1.10;;
69534;SDS011;56754;51.568;5.048;2023-08-17T04:43:41;3.17;;;1.10;;
69534;SDS011;56754;51.568;5.048;2023-08-17T04:46:07;4.10;;;1.10;;
69534;SDS011;56754;51.568;5.048;2023-08-17T04:48:32;3.40;;;0.93;;
69534;SDS011;56754;51.568;5.048;2023-08-17T04:50:57;4.17;;;1.10;;
69534;SDS011;56754;51.568;5.048;2023-08-17T04:53:23;3.60;;;1.13;;
69534;SDS011;56754;51.568;5.048;2023-08-17T04:55:48;4.77;;;1.20;;
69534;SDS011;56754;51.568;5.048;2023-08-17T04:58:13;4.73;;;1.30;;
69534;SDS011;56754;51.568;5.048;2023-08-17T05:00:39;3.73;;;1.20;;
69534;SDS011;56754;51.568;5.048;2023-08-17T05:03:04;2.33;;;0.93;;
69534;SDS011;56754;51.568;5.048;2023-08-17T05:05:29;2.97;;;1.00;;
69534;SDS011;56754;51.568;5.048;2023-08-17T05:07:54;3.50;;;1.10;;
69534;SDS011;56754;51.568;5.048;2023-08-17T05:10:20;4.43;;;1.20;;
69534;SDS011;56754;51.568;5.048;2023-08-17T05:12:45;3.73;;;1.07;;
69534;SDS011;56754;51.568;5.048;2023-08-17T05:15:10;4.67;;;0.97;;
69534;SDS011;56754;51.568;5.048;2023-08-17T05:17:36;3.03;;;1.00;;
69534;SDS011;56754;51.568;5.048;2023-08-17T05:20:01;3.58;;;1.02;;
69534;SDS011;56754;51.568;5.048;2023-08-17T05:22:26;4.07;;;1.00;;
69534;SDS011;56754;51.568;5.048;2023-08-17T05:24:52;4.43;;;1.15;;
69534;SDS011;56754;51.568;5.048;2023-08-17T05:27:18;3.20;;;1.00;;
69534;SDS011;56754;51.568;5.048;2023-08-17T05:29:43;3.70;;;1.07;;
69534;SDS011;56754;51.568;5.048;2023-08-17T05:32:08;2.90;;;0.90;;
69534;SDS011;56754;51.568;5.048;2023-08-17T05:34:34;2.40;;;0.90;;
69534;SDS011;56754;51.568;5.048;2023-08-17T05:36:59;2.43;;;0.93;;
69534;SDS011;56754;51.568;5.048;2023-08-17T05:39:25;3.93;;;1.10;;
69534;SDS011;56754;51.568;5.048;2023-08-17T05:41:51;2.60;;;0.93;;
69534;SDS011;56754;51.568;5.048;2023-08-17T05:44:17;2.80;;;0.90;;
69534;SDS011;56754;51.568;5.048;2023-08-17T05:46:42;4.43;;;1.20;;
69534;SDS011;56754;51.568;5.048;2023-08-17T05:49:08;2.30;;;0.90;;
69534;SDS011;56754;51.568;5.048;2023-08-17T05:51:33;3.43;;;1.00;;
69534;SDS011;56754;51.568;5.048;2023-08-17T05:53:58;5.25;;;1.27;;
69534;SDS011;56754;51.568;5.048;2023-08-17T05:56:23;5.10;;;1.10;;
69534;SDS011;56754;51.568;5.048;2023-08-17T05:58:49;3.43;;;0.97;;
69534;SDS011;56754;51.568;5.048;2023-08-17T06:01:14;4.13;;;1.10;;
69534;SDS011;56754;51.568;5.048;2023-08-17T06:03:40;5.23;;;1.13;;
69534;SDS011;56754;51.568;5.048;2023-08-17T06:06:05;4.90;;;1.33;;
69534;SDS011;56754;51.568;5.048;2023-08-17T06:08:30;4.25;;;1.20;;
69534;SDS011;56754;51.568;5.048;2023-08-17T06:10:56;3.37;;;0.70;;
69534;SDS011;56754;51.568;5.048;2023-08-17T06:13:21;3.70;;;1.10;;
69534;SDS011;56754;51.568;5.048;2023-08-17T06:15:46;3.03;;;0.83;;
69534;SDS011;56754;51.568;5.048;2023-08-17T06:18:12;3.58;;;1.00;;
69534;SDS011;56754;51.568;5.048;2023-08-17T06:20:37;4.30;;;1.00;;
69534;SDS011;56754;51.568;5.048;2023-08-17T06:23:03;3.37;;;1.00;;
69534;SDS011;56754;51.568;5.048;2023-08-17T06:25:28;4.37;;;1.00;;
69534;SDS011;56754;51.568;5.048;2023-08-17T06:27:53;3.30;;;1.03;;
69534;SDS011;56754;51.568;5.048;2023-08-17T06:30:19;2.90;;;1.00;;
69534;SDS011;56754;51.568;5.048;2023-08-17T06:32:44;3.40;;;1.00;;
69534;SDS011;56754;51.568;5.048;2023-08-17T06:35:09;2.70;;;0.90;;
69534;SDS011;56754;51.568;5.048;2023-08-17T06:37:35;3.60;;;1.20;;
69534;SDS011;56754;51.568;5.048;2023-08-17T06:40:01;4.68;;;1.00;;
69534;SDS011;56754;51.568;5.048;2023-08-17T06:42:27;3.43;;;0.93;;
69534;SDS011;56754;51.568;5.048;2023-08-17T06:44:53;2.93;;;1.00;;
69534;SDS011;56754;51.568;5.048;2023-08-17T06:47:18;3.17;;;0.95;;
69534;SDS011;56754;51.568;5.048;2023-08-17T06:49:43;4.23;;;1.20;;
69534;SDS011;56754;51.568;5.048;2023-08-17T06:52:09;5.20;;;1.20;;
69534;SDS011;56754;51.568;5.048;2023-08-17T06:54:34;2.83;;;0.80;;
69534;SDS011;56754;51.568;5.048;2023-08-17T06:56:59;3.60;;;1.00;;
69534;SDS011;56754;51.568;5.048;2023-08-17T06:59:24;4.17;;;0.87;;
69534;SDS011;56754;51.568;5.048;2023-08-17T07:01:50;3.67;;;1.00;;
69534;SDS011;56754;51.568;5.048;2023-08-17T07:04:15;2.33;;;0.77;;
69534;SDS011;56754;51.568;5.048;2023-08-17T07:06:40;3.47;;;0.90;;
69534;SDS011;56754;51.568;5.048;2023-08-17T07:09:05;4.60;;;0.93;;
69534;SDS011;56754;51.568;5.048;2023-08-17T07:11:31;5.80;;;1.40;;
69534;SDS011;56754;51.568;5.048;2023-08-17T07:13:56;3.17;;;0.90;;
69534;SDS011;56754;51.568;5.048;2023-08-17T07:16:21;4.70;;;1.00;;
69534;SDS011;56754;51.568;5.048;2023-08-17T07:18:47;3.93;;;1.03;;
69534;SDS011;56754;51.568;5.048;2023-08-17T07:21:12;3.37;;;0.90;;
69534;SDS011;56754;51.568;5.048;2023-08-17T07:23:37;3.43;;;1.07;;
69534;SDS011;56754;51.568;5.048;2023-08-17T07:26:03;3.57;;;1.00;;
69534;SDS011;56754;51.568;5.048;2023-08-17T07:28:28;3.17;;;1.00;;
69534;SDS011;56754;51.568;5.048;2023-08-17T07:30:53;3.70;;;1.00;;
69534;SDS011;56754;51.568;5.048;2023-08-17T07:33:18;3.60;;;0.90;;
69534;SDS011;56754;51.568;5.048;2023-08-17T07:35:44;3.83;;;1.00;;
69534;SDS011;56754;51.568;5.048;2023-08-17T07:38:09;3.53;;;0.70;;
69534;SDS011;56754;51.568;5.048;2023-08-17T07:40:34;2.90;;;0.93;;
69534;SDS011;56754;51.568;5.048;2023-08-17T07:43:00;3.90;;;0.80;;
69534;SDS011;56754;51.568;5.048;2023-08-17T07:45:25;5.80;;;1.20;;
69534;SDS011;56754;51.568;5.048;2023-08-17T07:47:50;4.67;;;1.17;;
69534;SDS011;56754;51.568;5.048;2023-08-17T07:50:16;2.70;;;0.70;;
69534;SDS011;56754;51.568;5.048;2023-08-17T07:52:41;3.97;;;1.23;;
69534;SDS011;56754;51.568;5.048;2023-08-17T07:55:06;4.07;;;1.10;;
69534;SDS011;56754;51.568;5.048;2023-08-17T07:57:32;3.23;;;1.03;;
69534;SDS011;56754;51.568;5.048;2023-08-17T07:59:57;3.85;;;0.98;;
69534;SDS011;56754;51.568;5.048;2023-08-17T08:02:22;4.53;;;1.10;;
69534;SDS011;56754;51.568;5.048;2023-08-17T08:04:47;3.33;;;1.03;;
69534;SDS011;56754;51.568;5.048;2023-08-17T08:07:13;2.90;;;1.10;;
69534;SDS011;56754;51.568;5.048;2023-08-17T08:09:38;3.70;;;1.30;;
69534;SDS011;56754;51.568;5.048;2023-08-17T08:12:03;2.77;;;1.00;;
69534;SDS011;56754;51.568;5.048;2023-08-17T08:14:30;3.65;;;1.10;;
69534;SDS011;56754;51.568;5.048;2023-08-17T08:16:55;3.97;;;1.03;;
69534;SDS011;56754;51.568;5.048;2023-08-17T08:19:20;4.33;;;1.00;;
69534;SDS011;56754;51.568;5.048;2023-08-17T08:21:46;3.43;;;1.10;;
69534;SDS011;56754;51.568;5.048;2023-08-17T08:24:12;5.22;;;1.15;;
69534;SDS011;56754;51.568;5.048;2023-08-17T08:26:37;4.83;;;1.10;;
69534;SDS011;56754;51.568;5.048;2023-08-17T08:29:03;4.70;;;1.13;;
69534;SDS011;56754;51.568;5.048;2023-08-17T08:31:28;3.05;;;1.13;;
69534;SDS011;56754;51.568;5.048;2023-08-17T08:33:53;6.80;;;1.07;;
69534;SDS011;56754;51.568;5.048;2023-08-17T08:36:19;4.77;;;1.10;;
69534;SDS011;56754;51.568;5.048;2023-08-17T08:38:44;4.67;;;1.30;;
69534;SDS011;56754;51.568;5.048;2023-08-17T08:41:11;5.00;;;1.30;;
69534;SDS011;56754;51.568;5.048;2023-08-17T08:43:36;4.95;;;1.60;;
69534;SDS011;56754;51.568;5.048;2023-08-17T08:46:02;4.80;;;1.40;;
69534;SDS011;56754;51.568;5.048;2023-08-17T08:48:28;3.33;;;1.17;;
69534;SDS011;56754;51.568;5.048;2023-08-17T08:50:55;4.03;;;0.90;;
69534;SDS011;56754;51.568;5.048;2023-08-17T08:53:22;2.35;;;0.82;;
69534;SDS011;56754;51.568;5.048;2023-08-17T08:55:54;4.47;;;1.37;;
69534;SDS011;56754;51.568;5.048;2023-08-17T08:58:22;4.13;;;1.20;;
69534;SDS011;56754;51.568;5.048;2023-08-17T09:00:49;3.63;;;0.93;;
69534;SDS011;56754;51.568;5.048;2023-08-17T09:03:15;3.50;;;1.00;;
69534;SDS011;56754;51.568;5.048;2023-08-17T09:05:42;5.05;;;1.42;;
69534;SDS011;56754;51.568;5.048;2023-08-17T09:08:09;5.40;;;1.70;;
69534;SDS011;56754;51.568;5.048;2023-08-17T09:10:36;5.53;;;1.23;;
69534;SDS011;56754;51.568;5.048;2023-08-17T09:13:03;4.45;;;1.10;;
69534;SDS011;56754;51.568;5.048;2023-08-17T09:15:28;4.97;;;1.50;;
69534;SDS011;56754;51.568;5.048;2023-08-17T09:17:54;5.75;;;1.60;;
69534;SDS011;56754;51.568;5.048;2023-08-17T09:20:41;4.47;;;0.90;;
69534;SDS011;56754;51.568;5.048;2023-08-17T09:23:11;4.18;;;1.48;;
69534;SDS011;56754;51.568;5.048;2023-08-17T09:25:38;4.33;;;1.40;;
69534;SDS011;56754;51.568;5.048;2023-08-17T09:28:08;3.65;;;1.20;;
69534;SDS011;56754;51.568;5.048;2023-08-17T09:30:54;5.07;;;1.73;;
69534;SDS011;56754;51.568;5.048;2023-08-17T09:33:22;7.15;;;2.05;;
69534;SDS011;56754;51.568;5.048;2023-08-17T09:35:50;7.00;;;2.30;;
69534;SDS011;56754;51.568;5.048;2023-08-17T09:38:16;6.27;;;2.20;;
69534;SDS011;56754;51.568;5.048;2023-08-17T09:40:42;4.25;;;1.40;;
69534;SDS011;56754;51.568;5.048;2023-08-17T09:43:08;4.00;;;1.03;;
69534;SDS011;56754;51.568;5.048;2023-08-17T09:45:35;9.35;;;2.30;;
69534;SDS011;56754;51.568;5.048;2023-08-17T09:48:02;6.38;;;2.00;;
69534;SDS011;56754;51.568;5.048;2023-08-17T09:50:27;6.37;;;2.07;;
69534;SDS011;56754;51.568;5.048;2023-08-17T09:52:53;6.63;;;2.10;;
69534;SDS011;56754;51.568;5.048;2023-08-17T09:55:18;5.13;;;1.67;;
69534;SDS011;56754;51.568;5.048;2023-08-17T09:57:47;5.97;;;1.50;;
69534;SDS011;56754;51.568;5.048;2023-08-17T10:00:17;4.55;;;1.30;;
69534;SDS011;56754;51.568;5.048;2023-08-17T10:02:44;5.05;;;1.50;;
69534;SDS011;56754;51.568;5.048;2023-08-17T10:05:10;6.37;;;1.83;;
69534;SDS011;56754;51.568;5.048;2023-08-17T10:07:38;6.68;;;2.08;;
69534;SDS011;56754;51.568;5.048;2023-08-17T10:10:06;5.80;;;1.92;;
69534;SDS011;56754;51.568;5.048;2023-08-17T10:12:33;5.43;;;1.58;;
69534;SDS011;56754;51.568;5.048;2023-08-17T10:15:02;4.32;;;1.83;;
69534;SDS011;56754;51.568;5.048;2023-08-17T10:17:35;4.20;;;1.33;;
69534;SDS011;56754;51.568;5.048;2023-08-17T10:20:08;5.90;;;2.13;;
69534;SDS011;56754;51.568;5.048;2023-08-17T10:22:47;6.35;;;1.92;;
69534;SDS011;56754;51.568;5.048;2023-08-17T10:25:20;6.63;;;2.03;;
69534;SDS011;56754;51.568;5.048;2023-08-17T10:27:47;6.63;;;2.08;;
69534;SDS011;56754;51.568;5.048;2023-08-17T10:30:14;5.60;;;1.80;;
69534;SDS011;56754;51.568;5.048;2023-08-17T10:32:39;4.00;;;1.70;;
69534;SDS011;56754;51.568;5.048;2023-08-17T10:35:06;7.43;;;2.57;;
69534;SDS011;56754;51.568;5.048;2023-08-17T10:37:31;6.18;;;1.65;;
69534;SDS011;56754;51.568;5.048;2023-08-17T10:39:57;5.93;;;1.50;;
69534;SDS011;56754;51.568;5.048;2023-08-17T10:42:32;5.30;;;1.70;;
69534;SDS011;56754;51.568;5.048;2023-08-17T10:44:58;7.15;;;2.35;;
69534;SDS011;56754;51.568;5.048;2023-08-17T10:47:33;6.07;;;1.90;;
69534;SDS011;56754;51.568;5.048;2023-08-17T10:50:00;6.13;;;2.30;;
69534;SDS011;56754;51.568;5.048;2023-08-17T10:52:32;5.90;;;1.92;;
69534;SDS011;56754;51.568;5.048;2023-08-17T10:55:05;7.05;;;2.30;;
69534;SDS011;56754;51.568;5.048;2023-08-17T10:57:32;6.00;;;2.47;;
69534;SDS011;56754;51.568;5.048;2023-08-17T11:02:39;6.32;;;2.10;;
69534;SDS011;56754;51.568;5.048;2023-08-17T11:05:05;7.40;;;2.20;;
69534;SDS011;56754;51.568;5.048;2023-08-17T11:07:44;5.43;;;1.93;;
69534;SDS011;56754;51.568;5.048;2023-08-17T11:12:44;6.30;;;2.53;;
69534;SDS011;56754;51.568;5.048;2023-08-17T11:15:09;6.70;;;2.60;;
69534;SDS011;56754;51.568;5.048;2023-08-17T11:17:34;5.90;;;2.07;;
69534;SDS011;56754;51.568;5.048;2023-08-17T11:20:00;5.30;;;1.90;;
69534;SDS011;56754;51.568;5.048;2023-08-17T11:22:25;5.60;;;2.20;;
69534;SDS011;56754;51.568;5.048;2023-08-17T11:24:50;10.40;;;3.77;;
69534;SDS011;56754;51.568;5.048;2023-08-17T11:27:16;7.30;;;2.43;;
69534;SDS011;56754;51.568;5.048;2023-08-17T11:29:41;6.00;;;2.10;;
69534;SDS011;56754;51.568;5.048;2023-08-17T11:32:09;5.22;;;2.10;;
69534;SDS011;56754;51.568;5.048;2023-08-17T11:34:35;6.63;;;2.13;;
69534;SDS011;56754;51.568;5.048;2023-08-17T11:37:00;6.40;;;2.42;;
69534;SDS011;56754;51.568;5.048;2023-08-17T11:39:26;6.27;;;1.80;;
69534;SDS011;56754;51.568;5.048;2023-08-17T11:41:51;7.47;;;2.30;;
69534;SDS011;56754;51.568;5.048;2023-08-17T11:44:17;6.78;;;2.45;;
69534;SDS011;56754;51.568;5.048;2023-08-17T11:46:43;5.80;;;2.13;;
69534;SDS011;56754;51.568;5.048;2023-08-17T11:49:08;6.27;;;2.30;;
69534;SDS011;56754;51.568;5.048;2023-08-17T11:51:34;8.70;;;2.50;;
69534;SDS011;56754;51.568;5.048;2023-08-17T11:53:59;6.93;;;2.30;;
69534;SDS011;56754;51.568;5.048;2023-08-17T11:56:25;6.30;;;2.20;;
69534;SDS011;56754;51.568;5.048;2023-08-17T11:58:50;5.97;;;2.40;;
69534;SDS011;56754;51.568;5.048;2023-08-17T12:01:15;6.63;;;2.60;;
69534;SDS011;56754;51.568;5.048;2023-08-17T12:03:41;9.43;;;3.20;;
69534;SDS011;56754;51.568;5.048;2023-08-17T12:06:07;6.22;;;2.97;;
69534;SDS011;56754;51.568;5.048;2023-08-17T12:08:33;6.18;;;2.22;;
69534;SDS011;56754;51.568;5.048;2023-08-17T12:10:58;6.37;;;2.13;;
69534;SDS011;56754;51.568;5.048;2023-08-17T12:13:30;6.13;;;2.53;;
69534;SDS011;56754;51.568;5.048;2023-08-17T12:15:57;6.05;;;2.25;;
69534;SDS011;56754;51.568;5.048;2023-08-17T12:18:22;6.87;;;2.70;;
69534;SDS011;56754;51.568;5.048;2023-08-17T12:20:51;6.13;;;2.50;;
69534;SDS011;56754;51.568;5.048;2023-08-17T12:23:18;7.07;;;2.70;;
69534;SDS011;56754;51.568;5.048;2023-08-17T12:25:43;7.77;;;2.70;;
69534;SDS011;56754;51.568;5.048;2023-08-17T12:28:08;7.32;;;3.30;;
69534;SDS011;56754;51.568;5.048;2023-08-17T12:30:37;7.73;;;3.23;;
69534;SDS011;56754;51.568;5.048;2023-08-17T12:33:03;7.47;;;3.20;;
69534;SDS011;56754;51.568;5.048;2023-08-17T12:35:29;7.93;;;3.05;;
69534;SDS011;56754;51.568;5.048;2023-08-17T12:37:56;7.72;;;3.30;;
69534;SDS011;56754;51.568;5.048;2023-08-17T12:40:22;9.40;;;3.63;;
69534;SDS011;56754;51.568;5.048;2023-08-17T12:42:48;8.70;;;3.83;;
69534;SDS011;56754;51.568;5.048;2023-08-17T12:45:14;8.98;;;3.83;;
69534;SDS011;56754;51.568;5.048;2023-08-17T12:47:39;9.20;;;3.90;;
69534;SDS011;56754;51.568;5.048;2023-08-17T12:50:05;9.77;;;3.97;;
69534;SDS011;56754;51.568;5.048;2023-08-17T12:52:31;7.10;;;3.75;;
69534;SDS011;56754;51.568;5.048;2023-08-17T12:54:56;9.13;;;3.70;;
69534;SDS011;56754;51.568;5.048;2023-08-17T12:57:22;11.38;;;4.10;;
69534;SDS011;56754;51.568;5.048;2023-08-17T12:59:47;9.17;;;3.70;;
69534;SDS011;56754;51.568;5.048;2023-08-17T13:02:13;9.23;;;3.63;;
69534;SDS011;56754;51.568;5.048;2023-08-17T13:04:39;8.53;;;3.77;;
69534;SDS011;56754;51.568;5.048;2023-08-17T13:07:04;10.02;;;3.65;;
69534;SDS011;56754;51.568;5.048;2023-08-17T13:09:30;8.37;;;3.90;;
69534;SDS011;56754;51.568;5.048;2023-08-17T13:11:55;10.53;;;3.80;;
69534;SDS011;56754;51.568;5.048;2023-08-17T13:14:20;8.37;;;4.20;;
69534;SDS011;56754;51.568;5.048;2023-08-17T13:16:45;9.27;;;4.43;;
69534;SDS011;56754;51.568;5.048;2023-08-17T13:19:11;9.67;;;4.03;;
69534;SDS011;56754;51.568;5.048;2023-08-17T13:21:36;8.50;;;4.13;;
69534;SDS011;56754;51.568;5.048;2023-08-17T13:24:01;9.23;;;3.90;;
69534;SDS011;56754;51.568;5.048;2023-08-17T13:26:27;10.10;;;4.17;;
69534;SDS011;56754;51.568;5.048;2023-08-17T13:28:52;10.33;;;4.47;;
69534;SDS011;56754;51.568;5.048;2023-08-17T13:31:17;11.60;;;4.17;;
69534;SDS011;56754;51.568;5.048;2023-08-17T13:33:42;11.37;;;4.23;;
69534;SDS011;56754;51.568;5.048;2023-08-17T13:36:08;9.20;;;4.13;;
69534;SDS011;56754;51.568;5.048;2023-08-17T13:38:33;10.13;;;4.43;;
69534;SDS011;56754;51.568;5.048;2023-08-17T13:40:58;9.53;;;4.40;;
69534;SDS011;56754;51.568;5.048;2023-08-17T13:43:24;10.50;;;4.07;;
69534;SDS011;56754;51.568;5.048;2023-08-17T13:45:49;10.97;;;4.47;;
69534;SDS011;56754;51.568;5.048;2023-08-17T13:48:14;10.90;;;4.20;;
69534;SDS011;56754;51.568;5.048;2023-08-17T13:50:40;11.27;;;4.50;;
69534;SDS011;56754;51.568;5.048;2023-08-17T13:53:05;8.37;;;4.27;;
69534;SDS011;56754;51.568;5.048;2023-08-17T13:55:31;11.57;;;4.63;;
69534;SDS011;56754;51.568;5.048;2023-08-17T13:57:57;11.17;;;4.03;;
69534;SDS011;56754;51.568;5.048;2023-08-17T14:00:22;9.77;;;4.75;;
69534;SDS011;56754;51.568;5.048;2023-08-17T14:02:48;8.40;;;4.33;;
69534;SDS011;56754;51.568;5.048;2023-08-17T14:05:13;10.23;;;4.40;;
69534;SDS011;56754;51.568;5.048;2023-08-17T14:07:38;9.70;;;4.47;;
69534;SDS011;56754;51.568;5.048;2023-08-17T14:10:04;9.07;;;4.60;;
69534;SDS011;56754;51.568;5.048;2023-08-17T14:12:29;11.07;;;4.27;;
69534;SDS011;56754;51.568;5.048;2023-08-17T14:14:55;8.85;;;4.15;;
69534;SDS011;56754;51.568;5.048;2023-08-17T14:17:20;10.10;;;5.17;;
69534;SDS011;56754;51.568;5.048;2023-08-17T14:19:45;10.27;;;4.57;;
69534;SDS011;56754;51.568;5.048;2023-08-17T14:22:10;10.67;;;5.20;;
69534;SDS011;56754;51.568;5.048;2023-08-17T14:24:36;11.70;;;4.83;;
69534;SDS011;56754;51.568;5.048;2023-08-17T14:27:01;11.67;;;4.70;;
69534;SDS011;56754;51.568;5.048;2023-08-17T14:29:26;10.47;;;4.70;;
69534;SDS011;56754;51.568;5.048;2023-08-17T14:31:51;10.47;;;5.07;;
69534;SDS011;56754;51.568;5.048;2023-08-17T14:34:17;9.53;;;4.70;;
69534;SDS011;56754;51.568;5.048;2023-08-17T14:36:42;10.30;;;4.80;;
69534;SDS011;56754;51.568;5.048;2023-08-17T14:39:07;12.27;;;4.80;;
69534;SDS011;56754;51.568;5.048;2023-08-17T14:41:33;10.23;;;4.93;;
69534;SDS011;56754;51.568;5.048;2023-08-17T14:43:58;10.60;;;4.37;;
69534;SDS011;56754;51.568;5.048;2023-08-17T14:46:24;9.93;;;4.77;;